world map with ZVK marked

ZVK - Airport

This information may not be accurate or current and is not valid for navigation or flight planning. No warranty of fitness for any purpose is made or implied.

flag of Lao People's Democratic Republic (Laos)

Donate via PayPal

Additional information is available on the NEW Great Circle Mapper

Location
City:  Savannakhét, Lao People's Democratic Republic (Laos)
ICAO / IATA:VLSK / ZVK

Details
Type:Airport (Aerodrome, Airfield)
Latitude:16°33'24"N (16.556594)
Longitude:104°45'34"E (104.759531)
Datum:WGS 1984
Elevation:509 ft (155 m)
Runways:1
Longest:5358 × 125 ft (1633 × 38 m)

Time
Timezone:UTC+7 (DST+9)
Local Time:

Weather
METAR:VLSK  041200Z 04002KT 3000 HZ FEW020 30/12 Q1011 NOSIG
TAF:VLSK  041100Z 0412/0512 09004KT 8000 FEW020 TEMPO 0414/0420 3000 BR SCT040

Related Locations
Nearby:
Farthest:SPYU: 12355 mi / 19884 km
Yauca, ARE, PE

Find:

   beyond  
but within

Other Information
Maps:
Sources:

  


 


Great Circle Mapper   Great Circle Mapper
Great Circle Mapper FAQ   Great Circle Mapper FAQ
  Karl's Home Page
KLS²   KLS² Home
   GC on Facebook
Airlines of the World   Airlines of the World
Donate via PayPal


Copyright © 2004-2019, Karl L. Swartz. All rights reserved.
All trademarks mentioned herein belong to their respective owners.

Please see credits for attribution and copyright information.

Karl Swartz <karl@kls2.com>
  Powered by FreeBSD
Valid HTML 4.01!
Labeled with ICRA
hCard Microformat
Geo Microformat